Terminal Aerodrome Forecast
Issued by NWS Huntsville, AL

Home | Current Version | Previous Version | Text Only | Print | Product List | Glossary On
Versions: 1 2 3 4 5 6 7 8 9 10 11 12 13 14 15 16 17 18 19 20 21 22 23 24 25 26 27 28 29 30 31 32 33 34
306
FTUS44 KHUN 252320
TAFHSV
TAF
KHSV 252320Z 2600/2624 35008KT P6SM FEW250
     FM260500 VRB03KT P6SM FEW200
      TEMPO 2609/2612 5SM BR
     FM261500 02006KT P6SM SCT150=

USA.gov is the U.S. government's official web portal to all federal, state and local government web resources and services.